createdAt,value
2019-03-19T00:01:36.601Z,99.90
2019-03-19T00:04:04.030Z,99.90
2019-03-19T00:06:31.498Z,99.90
2019-03-19T00:08:58.918Z,99.90
2019-03-19T00:11:26.341Z,99.90
2019-03-19T00:13:53.803Z,99.90
2019-03-19T00:16:21.201Z,99.90
2019-03-19T00:18:48.668Z,99.90
2019-03-19T00:21:16.144Z,99.90
2019-03-19T00:23:43.614Z,99.90
2019-03-19T00:26:11.066Z,99.90
2019-03-19T00:28:39.144Z,99.90
2019-03-19T00:31:07.186Z,99.90
2019-03-19T00:33:34.599Z,99.90
2019-03-19T00:36:02.036Z,99.90
2019-03-19T00:38:29.559Z,99.90
2019-03-19T00:40:57.025Z,99.90
2019-03-19T00:43:24.490Z,99.90
2019-03-19T00:45:51.939Z,99.90
2019-03-19T00:48:19.413Z,99.90
2019-03-19T00:50:46.839Z,99.90
2019-03-19T00:53:14.318Z,99.90
2019-03-19T00:55:42.068Z,99.90
2019-03-19T00:58:09.506Z,99.90
2019-03-19T01:00:36.949Z,99.90
2019-03-19T01:03:04.452Z,99.90
2019-03-19T01:05:32.004Z,99.90
2019-03-19T01:07:59.479Z,99.90
2019-03-19T01:10:26.986Z,99.90
2019-03-19T01:12:54.432Z,99.90
2019-03-19T01:15:22.570Z,99.90
2019-03-19T01:17:50.852Z,99.90
2019-03-19T01:20:18.603Z,99.90
2019-03-19T01:22:46.741Z,99.90
2019-03-19T01:25:14.220Z,99.90
2019-03-19T01:27:41.776Z,99.90
2019-03-19T01:30:09.754Z,99.90
2019-03-19T01:32:37.202Z,99.90
2019-03-19T01:35:04.972Z,99.90
2019-03-19T01:37:32.402Z,99.90
2019-03-19T01:40:00.298Z,99.90
2019-03-19T01:42:27.698Z,99.90
2019-03-19T01:44:55.155Z,99.90
2019-03-19T01:47:22.636Z,99.90
2019-03-19T01:49:50.089Z,99.90
2019-03-19T01:52:17.556Z,99.90
2019-03-19T01:54:45.046Z,99.90
2019-03-19T01:57:12.479Z,99.90
2019-03-19T01:59:39.964Z,99.90
2019-03-19T02:02:07.466Z,99.90
2019-03-19T02:04:34.923Z,99.90
2019-03-19T02:07:02.394Z,99.90
2019-03-19T02:09:29.928Z,99.90
2019-03-19T02:11:57.370Z,99.90
2019-03-19T02:14:25.287Z,99.90
2019-03-19T02:16:52.715Z,99.90
2019-03-19T02:19:20.576Z,99.90
2019-03-19T02:21:48.231Z,99.90
2019-03-19T02:24:15.817Z,99.90
2019-03-19T02:26:43.323Z,99.90
2019-03-19T02:29:11.021Z,99.90
2019-03-19T02:31:38.504Z,99.90
2019-03-19T02:34:05.989Z,99.90
2019-03-19T02:36:33.446Z,99.90
2019-03-19T02:39:00.904Z,99.90
2019-03-19T02:41:28.332Z,99.90
2019-03-19T02:43:55.763Z,99.90
2019-03-19T02:46:23.476Z,99.90
2019-03-19T02:48:50.934Z,99.90
2019-03-19T02:51:18.359Z,99.90
2019-03-19T02:53:45.809Z,99.90
2019-03-19T02:56:13.293Z,99.90
2019-03-19T02:58:40.718Z,99.90
2019-03-19T03:01:08.191Z,99.90
2019-03-19T03:03:35.754Z,99.90
2019-03-19T03:06:03.216Z,99.90
2019-03-19T03:08:30.681Z,99.90
2019-03-19T03:10:58.112Z,99.90
2019-03-19T03:13:25.595Z,99.90
2019-03-19T03:15:53.051Z,99.90
2019-03-19T03:18:20.517Z,99.90
2019-03-19T03:20:48.012Z,99.90
2019-03-19T03:23:15.825Z,99.90
2019-03-19T03:25:43.288Z,99.90
2019-03-19T03:28:10.703Z,99.90
2019-03-19T03:30:38.149Z,99.90
2019-03-19T03:33:05.603Z,99.90
2019-03-19T03:35:33.068Z,99.90
2019-03-19T03:38:00.571Z,99.90
2019-03-19T03:40:27.953Z,99.90
2019-03-19T03:42:56.183Z,99.90
2019-03-19T03:45:23.648Z,99.90
2019-03-19T03:47:51.096Z,99.90
2019-03-19T03:50:18.576Z,99.90
2019-03-19T03:52:46.016Z,99.90
2019-03-19T03:55:14.281Z,99.90
2019-03-19T03:57:41.807Z,99.90
2019-03-19T04:00:11.483Z,99.90
2019-03-19T04:02:38.907Z,99.90
2019-03-19T04:05:07.203Z,99.90
2019-03-19T04:07:34.628Z,99.90
2019-03-19T04:10:02.219Z,99.90
2019-03-19T04:12:29.665Z,99.90
2019-03-19T04:14:57.128Z,99.90
2019-03-19T04:17:24.620Z,99.90
2019-03-19T04:19:52.093Z,99.90
2019-03-19T04:22:19.579Z,99.90
2019-03-19T04:24:47.063Z,99.90
2019-03-19T04:27:16.221Z,99.90
2019-03-19T04:29:43.853Z,99.90
2019-03-19T04:32:11.335Z,99.90
2019-03-19T04:34:38.851Z,99.90
2019-03-19T04:37:06.311Z,99.90
2019-03-19T04:39:33.791Z,99.90
2019-03-19T04:42:01.267Z,99.90
2019-03-19T04:44:28.729Z,99.90
2019-03-19T04:46:56.141Z,99.90
2019-03-19T04:49:23.668Z,99.90
2019-03-19T04:51:51.134Z,99.90
2019-03-19T04:54:18.637Z,99.90
2019-03-19T04:56:46.083Z,99.90
2019-03-19T04:59:13.530Z,99.90
2019-03-19T05:01:41.007Z,99.90
2019-03-19T05:04:08.479Z,99.90
2019-03-19T05:06:36.018Z,99.90
2019-03-19T05:09:06.023Z,99.90
2019-03-19T05:11:33.486Z,99.90
2019-03-19T05:14:00.923Z,99.90
2019-03-19T05:16:28.398Z,99.90
2019-03-19T05:18:55.860Z,99.90
2019-03-19T05:21:23.278Z,99.90
2019-03-19T05:23:50.726Z,99.90
2019-03-19T05:26:18.237Z,99.90
2019-03-19T05:28:45.668Z,99.90
2019-03-19T05:31:13.161Z,99.90
2019-03-19T05:33:40.575Z,99.90
2019-03-19T05:36:07.998Z,99.90
2019-03-19T05:38:35.886Z,99.90
2019-03-19T05:41:03.304Z,99.90
2019-03-19T05:43:30.717Z,99.90
2019-03-19T05:45:58.155Z,99.90
2019-03-19T05:48:25.572Z,99.90
2019-03-19T05:50:53.005Z,99.90
2019-03-19T05:53:20.429Z,99.90
2019-03-19T05:55:48.054Z,99.90
2019-03-19T05:58:15.471Z,99.90
2019-03-19T06:00:42.931Z,99.90
2019-03-19T06:03:10.389Z,99.90
2019-03-19T06:05:37.833Z,99.90
2019-03-19T06:08:05.293Z,99.90
2019-03-19T06:10:32.747Z,99.90
2019-03-19T06:13:00.182Z,99.90
2019-03-19T06:15:27.950Z,99.90
2019-03-19T06:17:55.407Z,99.90
2019-03-19T06:20:22.851Z,99.90
2019-03-19T06:22:50.267Z,99.90
2019-03-19T06:25:17.742Z,99.90
2019-03-19T06:27:45.187Z,99.90
2019-03-19T06:30:14.140Z,99.90
2019-03-19T06:32:41.690Z,99.90
2019-03-19T06:35:09.700Z,99.90
2019-03-19T06:37:37.120Z,99.90
2019-03-19T06:40:04.600Z,99.90
2019-03-19T06:42:32.034Z,99.90
2019-03-19T06:44:59.438Z,99.90
2019-03-19T06:47:26.885Z,99.90
2019-03-19T06:49:54.302Z,99.90
2019-03-19T06:52:21.706Z,99.90
2019-03-19T06:54:49.170Z,99.90
2019-03-19T06:57:16.605Z,99.90
2019-03-19T06:59:44.133Z,99.90
2019-03-19T07:02:11.553Z,99.90
2019-03-19T07:04:38.998Z,99.90
2019-03-19T07:07:06.453Z,99.90
2019-03-19T07:09:33.902Z,99.90
2019-03-19T07:12:01.845Z,99.90
2019-03-19T07:14:29.215Z,99.90
2019-03-19T07:16:57.079Z,99.90
2019-03-19T07:19:24.551Z,99.90
2019-03-19T07:21:52.015Z,99.90
2019-03-19T07:24:19.455Z,99.90
2019-03-19T07:26:46.881Z,99.90
2019-03-19T07:29:14.302Z,99.90
2019-03-19T07:31:41.751Z,99.90
2019-03-19T07:34:09.162Z,99.90
2019-03-19T07:36:36.588Z,99.90
2019-03-19T07:39:06.927Z,99.90
2019-03-19T07:41:34.336Z,99.90
2019-03-19T07:44:01.775Z,99.90
2019-03-19T07:46:29.485Z,99.90
2019-03-19T07:48:56.927Z,99.90
2019-03-19T07:51:24.367Z,99.90
2019-03-19T07:53:51.847Z,99.90
2019-03-19T07:56:19.262Z,99.90
2019-03-19T07:58:47.004Z,99.90
2019-03-19T08:01:14.436Z,99.90
2019-03-19T08:03:41.908Z,99.90
2019-03-19T08:06:09.304Z,99.90
2019-03-19T08:08:36.694Z,99.90
2019-03-19T08:11:04.114Z,99.90
2019-03-19T08:13:31.574Z,99.90
2019-03-19T08:15:59.006Z,99.90
2019-03-19T08:18:26.424Z,99.90
2019-03-19T08:20:53.937Z,99.90
2019-03-19T08:23:21.354Z,99.90
2019-03-19T08:25:48.798Z,99.90
2019-03-19T08:28:16.240Z,99.90
2019-03-19T08:30:43.706Z,99.90
2019-03-19T08:33:11.136Z,99.90
2019-03-19T08:35:38.646Z,99.90
2019-03-19T08:38:06.047Z,99.90
2019-03-19T08:40:33.466Z,99.90
2019-03-19T08:43:01.184Z,99.90
2019-03-19T08:45:28.632Z,99.90
2019-03-19T08:47:56.048Z,99.90
2019-03-19T08:50:23.494Z,99.90
2019-03-19T08:52:51.159Z,99.90
2019-03-19T08:55:18.760Z,99.90
2019-03-19T08:57:46.608Z,99.90
2019-03-19T09:00:15.914Z,99.90
2019-03-19T09:02:44.049Z,99.90
2019-03-19T09:05:11.456Z,99.90
2019-03-19T09:07:38.909Z,99.90
2019-03-19T09:10:08.709Z,99.90
2019-03-19T09:12:36.121Z,99.90
2019-03-19T09:15:04.212Z,99.90
2019-03-19T09:17:31.622Z,99.90
2019-03-19T09:19:59.072Z,99.40
2019-03-19T09:22:29.841Z,98.20
2019-03-19T09:24:55.710Z,99.90
2019-03-19T09:27:23.170Z,99.60
2019-03-19T09:29:50.595Z,98.30
2019-03-19T09:32:18.524Z,98.30
2019-03-19T09:34:45.957Z,99.70
2019-03-19T09:37:13.391Z,98.80
2019-03-19T09:39:40.834Z,98.00
2019-03-19T09:42:08.234Z,96.00
2019-03-19T09:44:35.750Z,96.90
2019-03-19T09:47:03.254Z,94.30
2019-03-19T09:49:30.964Z,95.70
2019-03-19T09:51:58.370Z,95.50
2019-03-19T09:54:25.786Z,93.50
2019-03-19T09:56:53.286Z,91.80
2019-03-19T09:59:27.032Z,90.50
2019-03-19T10:01:49.886Z,91.60
2019-03-19T10:04:17.323Z,88.60
2019-03-19T10:06:44.736Z,84.50
2019-03-19T10:09:12.185Z,85.50
2019-03-19T10:11:39.584Z,83.50
2019-03-19T10:14:07.033Z,81.30
2019-03-19T10:16:34.477Z,82.10
2019-03-19T10:19:01.889Z,78.20
2019-03-19T10:21:29.320Z,78.80
2019-03-19T10:23:56.739Z,77.00
2019-03-19T10:26:24.161Z,77.10
2019-03-19T10:28:51.582Z,73.30
2019-03-19T10:31:19.063Z,71.60
2019-03-19T10:33:46.504Z,72.10
2019-03-19T10:36:13.976Z,73.80
2019-03-19T10:38:41.390Z,76.90
2019-03-19T10:41:08.863Z,75.50
2019-03-19T10:43:36.302Z,78.20
2019-03-19T10:46:03.730Z,75.10
2019-03-19T10:48:31.149Z,69.50
2019-03-19T10:50:58.651Z,67.70
2019-03-19T10:53:26.138Z,64.90
2019-03-19T10:55:53.538Z,63.20
2019-03-19T10:58:20.976Z,58.00
2019-03-19T11:00:48.526Z,58.40
2019-03-19T11:03:15.935Z,55.70
2019-03-19T11:05:43.348Z,56.80
2019-03-19T11:08:10.799Z,52.50
2019-03-19T11:10:38.220Z,56.80
2019-03-19T11:13:05.649Z,54.60
2019-03-19T11:15:33.074Z,51.60
2019-03-19T11:18:01.436Z,56.60
2019-03-19T11:20:28.840Z,54.80
2019-03-19T11:22:56.239Z,52.60
2019-03-19T11:25:23.871Z,54.20
2019-03-19T11:27:51.352Z,53.50
2019-03-19T11:30:20.167Z,49.90
2019-03-19T11:32:47.625Z,48.50
2019-03-19T11:35:15.431Z,48.30
2019-03-19T11:37:42.865Z,50.70
2019-03-19T11:40:11.110Z,48.90
2019-03-19T11:42:38.842Z,49.50
2019-03-19T11:45:07.060Z,50.40
2019-03-19T11:47:34.447Z,50.80
2019-03-19T11:50:01.900Z,50.30
2019-03-19T11:52:29.323Z,50.00
2019-03-19T11:54:56.754Z,51.80
2019-03-19T11:57:24.170Z,46.50
2019-03-19T11:59:51.575Z,48.90
2019-03-19T12:02:25.868Z,51.00
2019-03-19T12:04:48.321Z,51.20
2019-03-19T12:07:15.721Z,51.60
2019-03-19T12:09:43.163Z,48.50
2019-03-19T12:12:11.699Z,47.30
2019-03-19T12:14:39.253Z,49.20
2019-03-19T12:17:06.700Z,50.10
2019-03-19T12:19:34.160Z,52.50
2019-03-19T12:22:01.547Z,48.30
2019-03-19T12:24:28.962Z,45.90
2019-03-19T12:26:56.682Z,47.10
2019-03-19T12:29:24.312Z,45.20
2019-03-19T12:31:51.742Z,43.50
2019-03-19T12:34:19.146Z,49.30
2019-03-19T12:36:46.587Z,43.50
2019-03-19T12:39:13.992Z,41.80
2019-03-19T12:41:41.433Z,45.60
2019-03-19T12:44:08.962Z,48.60
2019-03-19T12:46:36.748Z,45.70
2019-03-19T12:49:04.415Z,44.90
2019-03-19T12:51:31.833Z,43.20
2019-03-19T12:53:59.346Z,47.50
2019-03-19T12:56:26.845Z,46.90
2019-03-19T12:58:54.388Z,44.10
2019-03-19T13:01:21.986Z,43.00
2019-03-19T13:03:49.528Z,44.50
2019-03-19T13:06:17.470Z,44.00
2019-03-19T13:08:44.970Z,40.30
2019-03-19T13:11:12.868Z,39.30
2019-03-19T13:13:41.056Z,38.80
2019-03-19T13:16:08.634Z,39.60
2019-03-19T13:18:36.073Z,44.60
2019-03-19T13:21:03.626Z,47.90
2019-03-19T13:23:31.072Z,51.60
2019-03-19T13:25:58.505Z,53.50
2019-03-19T13:28:25.992Z,53.80
2019-03-19T13:30:53.448Z,57.70
2019-03-19T13:33:20.909Z,60.20
2019-03-19T13:35:48.384Z,58.40
2019-03-19T13:38:15.821Z,60.30
2019-03-19T13:40:43.253Z,59.70
2019-03-19T13:43:10.808Z,58.60
2019-03-19T13:45:38.218Z,58.30
2019-03-19T13:48:05.645Z,64.60
2019-03-19T13:50:33.899Z,64.60
2019-03-19T13:53:01.462Z,64.30
2019-03-19T13:55:28.876Z,68.00
2019-03-19T13:57:56.317Z,69.70
2019-03-19T14:00:24.200Z,65.40
2019-03-19T14:02:51.671Z,66.30
2019-03-19T14:05:19.129Z,67.40
2019-03-19T14:07:46.663Z,67.40
2019-03-19T14:10:14.170Z,66.90
2019-03-19T14:12:41.656Z,67.60
2019-03-19T14:15:11.182Z,65.20
2019-03-19T14:17:39.065Z,65.40
2019-03-19T14:20:08.548Z,67.70
2019-03-19T14:22:36.027Z,67.50
2019-03-19T14:25:04.352Z,67.50
2019-03-19T14:27:31.833Z,71.20
2019-03-19T14:29:59.720Z,68.40
2019-03-19T14:32:27.360Z,70.00
2019-03-19T14:34:54.756Z,68.00
2019-03-19T14:37:22.290Z,69.10
2019-03-19T14:39:49.764Z,69.80
2019-03-19T14:42:19.500Z,69.80
2019-03-19T14:44:46.818Z,69.80
2019-03-19T14:47:14.255Z,67.40
2019-03-19T14:49:46.569Z,69.10
2019-03-19T14:52:11.247Z,66.10
2019-03-19T14:54:38.686Z,63.60
2019-03-19T14:57:06.266Z,61.00
2019-03-19T14:59:33.717Z,52.20
2019-03-19T15:02:01.237Z,50.80
2019-03-19T15:04:29.008Z,53.60
2019-03-19T15:06:56.450Z,47.60
2019-03-19T15:09:23.997Z,51.90
2019-03-19T15:11:51.501Z,56.40
2019-03-19T15:14:19.273Z,54.50
2019-03-19T15:16:47.044Z,58.40
2019-03-19T15:19:14.723Z,60.60
2019-03-19T15:21:42.183Z,63.60
2019-03-19T15:24:09.673Z,62.20
2019-03-19T15:26:37.206Z,56.10
2019-03-19T15:29:04.973Z,51.80
2019-03-19T15:31:32.431Z,54.30
2019-03-19T15:34:00.544Z,52.00
2019-03-19T15:36:28.023Z,51.60
2019-03-19T15:38:55.471Z,51.00
2019-03-19T15:41:28.243Z,48.90
2019-03-19T15:43:55.954Z,43.40
2019-03-19T15:46:23.393Z,42.70
2019-03-19T15:48:50.870Z,40.40
2019-03-19T15:51:18.367Z,43.30
2019-03-19T15:53:45.814Z,45.10
2019-03-19T15:56:13.265Z,49.90
2019-03-19T15:58:40.714Z,54.30
2019-03-19T16:01:08.550Z,57.80
2019-03-19T16:03:36.038Z,61.90
2019-03-19T16:06:03.565Z,64.00
2019-03-19T16:08:31.030Z,66.80
2019-03-19T16:10:58.545Z,66.30
2019-03-19T16:13:26.052Z,68.00
2019-03-19T16:15:53.571Z,66.50
2019-03-19T16:18:21.034Z,60.60
2019-03-19T16:20:48.473Z,56.70
2019-03-19T16:23:16.003Z,49.10
2019-03-19T16:25:43.433Z,45.10
2019-03-19T16:28:10.928Z,46.50
2019-03-19T16:30:38.454Z,50.40
2019-03-19T16:33:06.099Z,52.30
2019-03-19T16:35:33.565Z,49.90
2019-03-19T16:38:01.145Z,50.10
2019-03-19T16:40:48.057Z,45.50
2019-03-19T16:43:15.543Z,50.20
2019-03-19T16:45:43.043Z,53.60
2019-03-19T16:48:10.574Z,56.10
2019-03-19T16:50:38.091Z,60.90
2019-03-19T16:53:05.494Z,61.30
2019-03-19T16:55:33.003Z,63.90
2019-03-19T16:58:00.992Z,61.30
2019-03-19T17:00:28.511Z,60.60
2019-03-19T17:02:55.955Z,60.20
2019-03-19T17:05:23.456Z,59.90
2019-03-19T17:07:50.932Z,57.50
2019-03-19T17:10:18.498Z,61.90
2019-03-19T17:12:45.932Z,65.70
2019-03-19T17:15:14.315Z,69.40
2019-03-19T17:17:41.761Z,72.40
2019-03-19T17:20:10.379Z,74.30
2019-03-19T17:22:37.847Z,75.70
2019-03-19T17:25:06.555Z,76.70
2019-03-19T17:27:33.978Z,77.80
2019-03-19T17:30:01.438Z,78.00
2019-03-19T17:32:28.941Z,77.60
2019-03-19T17:34:56.436Z,78.20
2019-03-19T17:37:24.244Z,79.10
2019-03-19T17:39:51.808Z,79.70
2019-03-19T17:42:20.177Z,79.80
2019-03-19T17:44:47.612Z,80.00
2019-03-19T17:47:15.127Z,80.50
2019-03-19T17:49:42.664Z,81.50
2019-03-19T17:52:10.451Z,83.00
2019-03-19T17:54:37.896Z,85.90
2019-03-19T17:57:05.482Z,87.20
2019-03-19T17:59:33.524Z,86.80
2019-03-19T18:02:01.064Z,86.40
2019-03-19T18:04:30.051Z,85.70
2019-03-19T18:06:57.533Z,86.10
2019-03-19T18:09:25.371Z,86.20
2019-03-19T18:11:52.872Z,86.00
2019-03-19T18:14:20.695Z,86.00
2019-03-19T18:16:48.193Z,86.00
2019-03-19T18:19:15.721Z,87.00
2019-03-19T18:21:43.197Z,86.70
2019-03-19T18:24:11.350Z,86.90
2019-03-19T18:26:39.208Z,87.90
2019-03-19T18:29:06.677Z,88.40
2019-03-19T18:31:34.926Z,89.90
2019-03-19T18:34:10.212Z,89.30
2019-03-19T18:36:31.935Z,90.00
2019-03-19T18:39:00.362Z,90.20
2019-03-19T18:41:27.885Z,90.30
2019-03-19T18:43:56.094Z,90.90
2019-03-19T18:46:23.656Z,91.10
2019-03-19T18:48:57.321Z,91.20
2019-03-19T18:51:25.187Z,91.60
2019-03-19T18:53:53.025Z,91.80
2019-03-19T18:56:21.523Z,92.10
2019-03-19T18:59:08.527Z,92.50
2019-03-19T19:01:36.576Z,91.80
2019-03-19T19:04:04.854Z,92.70
2019-03-19T19:06:32.539Z,93.00
2019-03-19T19:09:00.451Z,93.50
2019-03-19T19:11:28.485Z,93.60
2019-03-19T19:13:56.771Z,94.00
2019-03-19T19:16:24.973Z,94.60
2019-03-19T19:18:53.257Z,94.50
2019-03-19T19:21:21.130Z,94.80
2019-03-19T19:23:49.000Z,95.40
2019-03-19T19:26:16.554Z,95.20
2019-03-19T19:28:44.872Z,95.90
2019-03-19T19:31:12.722Z,96.40
2019-03-19T19:33:40.187Z,96.40
2019-03-19T19:36:07.700Z,96.10
2019-03-19T19:38:35.939Z,96.30
2019-03-19T19:41:03.413Z,97.00
2019-03-19T19:43:31.274Z,97.00
2019-03-19T19:45:58.846Z,97.30
2019-03-19T19:48:26.734Z,97.20
2019-03-19T19:50:54.352Z,97.20
2019-03-19T19:53:21.758Z,97.40
2019-03-19T19:55:49.232Z,96.70
2019-03-19T19:58:16.787Z,97.00
2019-03-19T20:00:44.356Z,98.00
2019-03-19T20:03:12.835Z,99.10
2019-03-19T20:05:40.839Z,99.70
2019-03-19T20:08:27.759Z,99.50
2019-03-19T20:10:55.335Z,99.30
2019-03-19T20:13:22.775Z,99.70
2019-03-19T20:15:50.723Z,99.90
2019-03-19T20:18:18.202Z,99.90
2019-03-19T20:20:45.730Z,99.90
2019-03-19T20:23:13.514Z,99.90
2019-03-19T20:25:41.092Z,99.90
2019-03-19T20:28:08.617Z,99.90
2019-03-19T20:30:36.350Z,99.90
2019-03-19T20:33:04.090Z,99.90
2019-03-19T20:35:31.584Z,99.90
2019-03-19T20:37:59.103Z,99.90
2019-03-19T20:40:27.036Z,99.90
2019-03-19T20:42:55.298Z,99.90
2019-03-19T20:45:22.834Z,99.90
2019-03-19T20:47:50.436Z,99.90
2019-03-19T20:50:23.588Z,99.90
2019-03-19T20:52:51.077Z,99.90
2019-03-19T20:55:18.939Z,99.90
2019-03-19T20:57:46.445Z,99.90
2019-03-19T21:00:14.770Z,99.90
2019-03-19T21:02:42.276Z,99.90
2019-03-19T21:05:10.061Z,99.90
2019-03-19T21:07:37.534Z,99.90
2019-03-19T21:10:05.843Z,99.90
2019-03-19T21:12:33.292Z,99.90
2019-03-19T21:15:00.783Z,99.90
2019-03-19T21:17:28.286Z,99.90
2019-03-19T21:19:56.112Z,99.90
2019-03-19T21:22:43.058Z,99.90
2019-03-19T21:25:10.647Z,99.90
2019-03-19T21:27:38.165Z,99.90
2019-03-19T21:30:06.038Z,99.90
2019-03-19T21:32:33.634Z,99.90
2019-03-19T21:35:01.151Z,99.90
2019-03-19T21:37:28.925Z,99.90
2019-03-19T21:39:56.619Z,99.90
2019-03-19T21:42:24.148Z,99.90
2019-03-19T21:44:51.615Z,99.90
2019-03-19T21:47:20.215Z,99.90
2019-03-19T21:49:47.669Z,99.90
2019-03-19T21:52:15.170Z,99.90
2019-03-19T21:54:42.658Z,99.90
2019-03-19T21:57:10.205Z,99.90
2019-03-19T21:59:37.651Z,99.90
2019-03-19T22:02:05.245Z,99.90
2019-03-19T22:04:32.720Z,99.90
2019-03-19T22:07:00.235Z,99.90
2019-03-19T22:09:27.685Z,99.90
2019-03-19T22:11:55.204Z,99.90
2019-03-19T22:14:22.709Z,99.90
2019-03-19T22:16:50.205Z,99.90
2019-03-19T22:19:17.662Z,99.90
2019-03-19T22:21:45.391Z,99.90
2019-03-19T22:24:12.904Z,99.90
2019-03-19T22:26:40.343Z,99.90
2019-03-19T22:29:08.163Z,99.90
2019-03-19T22:31:35.628Z,99.90
2019-03-19T22:34:13.505Z,99.90
2019-03-19T22:36:32.765Z,99.90
2019-03-19T22:39:00.227Z,99.90
2019-03-19T22:41:28.124Z,99.90
2019-03-19T22:43:55.570Z,99.90
2019-03-19T22:46:23.010Z,99.90
2019-03-19T22:48:50.810Z,99.90
2019-03-19T22:51:18.596Z,99.90
2019-03-19T22:53:46.049Z,99.90
2019-03-19T22:56:13.792Z,99.90
2019-03-19T22:58:41.251Z,99.90
2019-03-19T23:01:09.139Z,99.90
2019-03-19T23:03:36.810Z,99.90
2019-03-19T23:06:04.343Z,99.90
2019-03-19T23:08:31.805Z,99.90
2019-03-19T23:10:59.285Z,99.90
2019-03-19T23:13:26.782Z,99.90
2019-03-19T23:15:54.545Z,99.90
2019-03-19T23:18:22.284Z,99.90
2019-03-19T23:20:49.794Z,99.90
2019-03-19T23:23:17.291Z,99.90
2019-03-19T23:25:44.858Z,99.90
2019-03-19T23:28:12.313Z,99.90
2019-03-19T23:30:39.778Z,99.90
2019-03-19T23:33:07.304Z,99.90
2019-03-19T23:35:35.801Z,99.90
2019-03-19T23:38:03.355Z,99.90
2019-03-19T23:40:30.844Z,99.90
2019-03-19T23:42:58.410Z,99.90
2019-03-19T23:45:26.160Z,99.90
2019-03-19T23:47:53.694Z,99.90
2019-03-19T23:50:21.152Z,99.90
2019-03-19T23:52:48.659Z,99.90
2019-03-19T23:55:16.314Z,99.90
2019-03-19T23:57:43.859Z,99.90
